createdAt,value
2023-02-14T00:01:16.625Z,281.26
2023-02-14T00:04:23.749Z,275.38
2023-02-14T00:07:29.798Z,271.40
2023-02-14T00:10:36.628Z,271.64
2023-02-14T00:14:03.109Z,271.48
2023-02-14T00:17:10.005Z,265.93
2023-02-14T00:20:15.930Z,274.33
2023-02-14T00:23:22.604Z,277.97
2023-02-14T00:26:28.466Z,276.82
2023-02-14T00:29:36.783Z,262.06
2023-02-14T00:32:46.570Z,259.01
2023-02-14T00:35:53.406Z,276.55
2023-02-14T00:39:00.026Z,277.80
2023-02-14T00:42:07.044Z,296.75
2023-02-14T00:45:13.569Z,275.90
2023-02-14T00:48:23.291Z,277.77
2023-02-14T00:51:30.047Z,280.81
2023-02-14T00:54:36.943Z,262.69
2023-02-14T00:57:44.837Z,261.53
2023-02-14T01:00:51.534Z,251.41
2023-02-14T01:04:01.987Z,245.57
2023-02-14T01:07:08.728Z,242.57
2023-02-14T01:10:15.584Z,241.09
2023-02-14T01:13:23.273Z,264.60
2023-02-14T01:16:33.372Z,259.41
2023-02-14T01:19:42.677Z,269.34
2023-02-14T01:22:48.604Z,237.95
2023-02-14T01:25:55.288Z,237.65
2023-02-14T01:29:01.119Z,220.07
2023-02-14T01:32:09.123Z,218.25
2023-02-14T01:35:17.856Z,231.56
2023-02-14T01:38:24.559Z,237.52
2023-02-14T01:41:34.295Z,246.84
2023-02-14T01:45:03.397Z,248.81
2023-02-14T01:48:13.855Z,224.61
2023-02-14T01:51:24.975Z,251.51
2023-02-14T01:54:41.757Z,278.89
2023-02-14T01:57:57.228Z,289.51
2023-02-14T02:01:03.586Z,286.82
2023-02-14T02:04:20.016Z,294.68
2023-02-14T02:07:33.081Z,283.96
2023-02-14T02:10:39.821Z,257.24
2023-02-14T02:13:46.631Z,257.72
2023-02-14T02:17:24.096Z,239.52
2023-02-14T02:21:08.453Z,246.17
2023-02-14T02:24:35.410Z,238.22
2023-02-14T02:28:13.436Z,262.99
2023-02-14T02:31:47.708Z,263.73
2023-02-14T02:35:48.846Z,232.71
2023-02-14T02:39:15.804Z,229.63
2023-02-14T02:42:40.228Z,254.87
2023-02-14T02:46:14.062Z,262.47
2023-02-14T02:49:52.442Z,247.24
2023-02-14T02:53:15.124Z,232.02
2023-02-14T02:56:43.981Z,221.81
2023-02-14T02:59:55.217Z,208.48
2023-02-14T03:03:15.815Z,202.34
2023-02-14T03:06:22.032Z,200.66
2023-02-14T03:10:00.920Z,216.76
2023-02-14T03:13:56.333Z,209.67
2023-02-14T03:17:32.937Z,187.17
2023-02-14T03:21:02.452Z,191.44
2023-02-14T03:24:20.866Z,188.49
2023-02-14T03:27:38.330Z,200.28
2023-02-14T03:31:00.342Z,229.66
2023-02-14T03:34:19.902Z,224.75
2023-02-14T03:37:38.194Z,217.12
2023-02-14T03:40:54.904Z,232.84
2023-02-14T03:44:13.029Z,218.67
2023-02-14T03:47:27.175Z,199.54
2023-02-14T03:50:37.735Z,196.35
2023-02-14T03:53:52.078Z,202.44
2023-02-14T03:57:16.185Z,190.31
2023-02-14T04:00:29.561Z,198.23
2023-02-14T04:03:45.392Z,208.82
2023-02-14T04:06:51.637Z,197.35
2023-02-14T04:09:58.408Z,191.31
2023-02-14T04:13:07.786Z,185.81
2023-02-14T04:16:17.255Z,190.75
2023-02-14T04:19:23.668Z,177.60
2023-02-14T04:22:35.272Z,176.82
2023-02-14T04:25:43.351Z,177.94
2023-02-14T04:28:50.144Z,177.39
2023-02-14T04:31:58.689Z,177.76
2023-02-14T04:35:08.818Z,193.56
2023-02-14T04:38:14.891Z,196.46
2023-02-14T04:41:21.552Z,186.77
2023-02-14T04:44:27.832Z,188.72
2023-02-14T04:47:37.217Z,188.24
2023-02-14T04:50:47.612Z,188.48
2023-02-14T04:53:54.362Z,185.60
2023-02-14T04:57:00.346Z,184.82
2023-02-14T05:00:12.221Z,190.23
2023-02-14T05:03:20.673Z,192.05
2023-02-14T05:06:34.571Z,196.99
2023-02-14T05:09:40.575Z,206.65
2023-02-14T05:12:47.333Z,211.28
2023-02-14T05:15:53.608Z,208.64
2023-02-14T05:19:02.950Z,203.53
2023-02-14T05:22:08.911Z,203.69
2023-02-14T05:25:15.527Z,199.79
2023-02-14T05:28:22.565Z,206.73
2023-02-14T05:31:29.339Z,196.49
2023-02-14T05:34:38.189Z,192.14
2023-02-14T05:37:46.929Z,187.35
2023-02-14T05:40:52.915Z,193.65
2023-02-14T05:43:59.619Z,206.55
2023-02-14T05:47:05.721Z,226.00
2023-02-14T05:50:15.402Z,232.28
2023-02-14T05:53:21.441Z,226.34
2023-02-14T05:56:28.296Z,229.11
2023-02-14T05:59:34.148Z,224.77
2023-02-14T06:02:40.793Z,213.29
2023-02-14T06:05:49.252Z,212.14
2023-02-14T06:08:56.136Z,207.21
2023-02-14T06:12:01.944Z,199.52
2023-02-14T06:15:10.117Z,191.83
2023-02-14T06:18:16.079Z,187.34
2023-02-14T06:21:25.622Z,182.93
2023-02-14T06:24:31.743Z,185.37
2023-02-14T06:27:38.503Z,181.90
2023-02-14T06:30:45.506Z,175.36
2023-02-14T06:33:52.515Z,169.35
2023-02-14T06:37:01.077Z,164.31
2023-02-14T06:40:10.164Z,157.73
2023-02-14T06:43:16.173Z,157.27
2023-02-14T06:46:23.218Z,155.62
2023-02-14T06:49:29.316Z,170.14
2023-02-14T06:52:38.706Z,168.91
2023-02-14T06:55:45.437Z,169.34
2023-02-14T06:58:52.202Z,185.87
2023-02-14T07:01:58.029Z,181.72
2023-02-14T07:05:04.820Z,178.66
2023-02-14T07:08:13.347Z,183.33
2023-02-14T07:11:20.044Z,172.01
2023-02-14T07:14:26.290Z,180.55
2023-02-14T07:17:32.953Z,177.42
2023-02-14T07:20:38.997Z,175.72
2023-02-14T07:23:50.214Z,175.62
2023-02-14T07:26:56.134Z,183.22
2023-02-14T07:30:02.898Z,188.04
2023-02-14T07:33:08.960Z,176.01
2023-02-14T07:36:15.782Z,193.16
2023-02-14T07:39:24.377Z,218.34
2023-02-14T07:42:31.332Z,206.91
2023-02-14T07:45:37.900Z,199.26
2023-02-14T07:48:44.569Z,196.54
2023-02-14T07:51:50.554Z,211.30
2023-02-14T07:54:59.894Z,278.66
2023-02-14T07:58:05.946Z,269.26
2023-02-14T08:01:12.806Z,238.55
2023-02-14T08:04:18.720Z,246.86
2023-02-14T08:07:25.592Z,219.60
2023-02-14T08:10:34.188Z,246.05
2023-02-14T08:13:41.016Z,222.58
2023-02-14T08:16:46.871Z,217.16
2023-02-14T08:19:53.616Z,266.45
2023-02-14T08:22:59.967Z,288.30
2023-02-14T08:26:09.872Z,266.79
2023-02-14T08:29:16.907Z,261.62
2023-02-14T08:32:23.903Z,302.13
2023-02-14T08:35:29.925Z,296.92
2023-02-14T08:38:36.615Z,269.99
2023-02-14T08:41:45.082Z,277.76
2023-02-14T08:44:51.770Z,259.86
2023-02-14T08:47:57.722Z,282.62
2023-02-14T08:51:09.746Z,278.88
2023-02-14T08:54:16.146Z,246.93
2023-02-14T08:57:25.482Z,275.98
2023-02-14T09:00:31.438Z,341.15
2023-02-14T09:03:38.606Z,268.61
2023-02-14T09:06:44.704Z,285.90
2023-02-14T09:09:51.438Z,293.34
2023-02-14T09:12:59.868Z,262.28
2023-02-14T09:16:08.642Z,254.41
2023-02-14T09:19:15.007Z,264.54
2023-02-14T09:22:23.365Z,250.98
2023-02-14T09:25:29.191Z,285.94
2023-02-14T09:28:39.577Z,233.04
2023-02-14T09:31:45.819Z,202.43
2023-02-14T09:34:52.733Z,237.43
2023-02-14T09:37:58.774Z,174.69
2023-02-14T09:41:11.402Z,217.99
2023-02-14T09:44:34.602Z,180.64
2023-02-14T09:47:54.257Z,198.76
2023-02-14T09:51:06.730Z,185.01
2023-02-14T09:54:22.200Z,222.78
2023-02-14T09:57:46.800Z,294.95
2023-02-14T10:01:09.870Z,190.02
2023-02-14T10:04:39.648Z,182.35
2023-02-14T10:08:11.423Z,177.66
2023-02-14T10:11:24.951Z,157.06
2023-02-14T10:14:41.189Z,158.53
2023-02-14T10:17:57.030Z,157.14
2023-02-14T10:21:08.163Z,176.48
2023-02-14T10:24:24.458Z,169.97
2023-02-14T10:27:39.884Z,134.70
2023-02-14T10:31:03.985Z,147.52
2023-02-14T10:34:24.189Z,155.37
2023-02-14T10:38:00.147Z,171.58
2023-02-14T10:41:35.770Z,182.83
2023-02-14T10:44:58.964Z,134.69
2023-02-14T10:48:26.528Z,166.38
2023-02-14T10:51:48.280Z,251.83
2023-02-14T10:55:03.183Z,353.11
2023-02-14T10:58:16.337Z,287.13
2023-02-14T11:01:23.544Z,193.81
2023-02-14T11:04:33.547Z,238.84
2023-02-14T11:07:42.877Z,163.69
2023-02-14T11:10:49.851Z,152.58
2023-02-14T11:13:57.122Z,162.73
2023-02-14T11:17:23.168Z,171.94
2023-02-14T11:20:32.581Z,185.73
2023-02-14T11:23:44.312Z,173.88
2023-02-14T11:26:57.729Z,168.99
2023-02-14T11:30:03.901Z,198.82
2023-02-14T11:33:25.876Z,199.05
2023-02-14T11:36:34.873Z,233.93
2023-02-14T11:39:44.696Z,300.34
2023-02-14T11:42:54.632Z,142.42
2023-02-14T11:46:28.281Z,90.49
2023-02-14T11:49:44.338Z,106.15
2023-02-14T11:53:00.664Z,147.60
2023-02-14T11:56:16.954Z,161.62
2023-02-14T11:59:34.711Z,196.63
2023-02-14T12:02:46.643Z,215.23
2023-02-14T12:06:00.697Z,160.68
2023-02-14T12:09:27.160Z,177.75
2023-02-14T12:12:40.218Z,144.62
2023-02-14T12:15:57.667Z,121.86
2023-02-14T12:19:09.917Z,118.16
2023-02-14T12:22:26.329Z,138.18
2023-02-14T12:25:49.851Z,123.10
2023-02-14T12:29:13.403Z,127.16
2023-02-14T12:32:27.237Z,124.08
2023-02-14T12:36:12.660Z,130.13
2023-02-14T12:39:39.235Z,137.30
2023-02-14T12:43:12.832Z,134.71
2023-02-14T12:47:02.610Z,139.52
2023-02-14T12:50:37.096Z,179.71
2023-02-14T12:54:30.894Z,379.96
2023-02-14T12:57:53.111Z,162.75
2023-02-14T13:01:28.844Z,134.20
2023-02-14T13:05:02.634Z,281.25
2023-02-14T13:08:35.292Z,144.18
2023-02-14T13:12:02.457Z,140.27
2023-02-14T13:15:29.842Z,215.29
2023-02-14T13:18:53.059Z,159.25
2023-02-14T13:22:07.917Z,113.71
2023-02-14T13:25:31.991Z,171.32
2023-02-14T13:28:45.221Z,163.50
2023-02-14T13:31:57.067Z,161.19
2023-02-14T13:35:05.623Z,126.21
2023-02-14T13:38:21.622Z,192.21
2023-02-14T13:41:31.733Z,198.41
2023-02-14T13:44:50.628Z,188.53
2023-02-14T13:48:11.474Z,189.69
2023-02-14T13:51:17.597Z,187.63
2023-02-14T13:54:46.835Z,223.21
2023-02-14T13:58:07.870Z,281.47
2023-02-14T14:01:35.942Z,432.39
2023-02-14T14:04:42.086Z,272.98
2023-02-14T14:07:48.804Z,163.37
2023-02-14T14:11:00.982Z,206.01
2023-02-14T14:14:40.699Z,210.54
2023-02-14T14:17:51.507Z,111.67
2023-02-14T14:20:58.650Z,123.01
2023-02-14T14:24:26.317Z,186.35
2023-02-14T14:27:43.524Z,173.00
2023-02-14T14:30:50.662Z,199.67
2023-02-14T14:34:03.662Z,209.32
2023-02-14T14:37:20.193Z,217.89
2023-02-14T14:40:32.426Z,227.59
2023-02-14T14:43:44.012Z,237.86
2023-02-14T14:46:51.988Z,184.54
2023-02-14T14:50:10.378Z,180.64
2023-02-14T14:53:30.795Z,298.00
2023-02-14T14:56:47.300Z,533.53
2023-02-14T15:00:31.742Z,622.00
2023-02-14T15:03:37.859Z,516.34
2023-02-14T15:06:47.440Z,295.28
2023-02-14T15:09:53.528Z,247.41
2023-02-14T15:13:14.890Z,317.72
2023-02-14T15:16:33.830Z,377.93
2023-02-14T15:19:51.193Z,234.04
2023-02-14T15:22:57.672Z,296.18
2023-02-14T15:26:07.964Z,156.94
2023-02-14T15:29:26.601Z,268.93
2023-02-14T15:32:40.344Z,467.37
2023-02-14T15:35:51.637Z,319.66
2023-02-14T15:39:06.498Z,163.99
2023-02-14T15:42:29.635Z,165.39
2023-02-14T15:45:37.928Z,172.98
2023-02-14T15:48:49.480Z,188.10
2023-02-14T15:51:57.789Z,278.39
2023-02-14T15:55:10.345Z,377.33
2023-02-14T15:58:29.255Z,503.18
2023-02-14T16:01:45.882Z,537.89
2023-02-14T16:05:12.083Z,335.37
2023-02-14T16:08:34.175Z,271.87
2023-02-14T16:11:41.709Z,232.07
2023-02-14T16:15:01.737Z,303.66
2023-02-14T16:18:22.458Z,337.19
2023-02-14T16:21:36.371Z,271.51
2023-02-14T16:24:43.641Z,293.87
2023-02-14T16:27:49.491Z,298.13
2023-02-14T16:31:05.233Z,281.80
2023-02-14T16:34:16.050Z,261.60
2023-02-14T16:37:31.781Z,273.68
2023-02-14T16:40:48.199Z,271.84
2023-02-14T16:43:55.337Z,260.76
2023-02-14T16:47:01.174Z,251.98
2023-02-14T16:50:11.544Z,271.41
2023-02-14T16:53:38.224Z,289.85
2023-02-14T16:56:54.487Z,314.63
2023-02-14T17:00:00.706Z,324.60
2023-02-14T17:03:11.778Z,333.47
2023-02-14T17:06:27.755Z,346.27
2023-02-14T17:09:45.814Z,354.72
2023-02-14T17:12:54.658Z,310.40
2023-02-14T17:16:04.920Z,308.72
2023-02-14T17:19:16.778Z,309.88
2023-02-14T17:22:24.808Z,324.71
2023-02-14T17:25:39.220Z,302.19
2023-02-14T17:28:46.612Z,300.29
2023-02-14T17:31:52.540Z,329.54
2023-02-14T17:35:05.101Z,384.71
2023-02-14T17:38:11.045Z,440.58
2023-02-14T17:41:24.591Z,410.02
2023-02-14T17:44:32.646Z,418.18
2023-02-14T17:47:45.410Z,381.32
2023-02-14T17:50:51.373Z,352.45
2023-02-14T17:53:59.077Z,316.12
2023-02-14T17:57:07.848Z,338.58
2023-02-14T18:00:16.837Z,342.92
2023-02-14T18:03:24.060Z,357.84
2023-02-14T18:06:36.794Z,353.16
2023-02-14T18:09:47.615Z,371.08
2023-02-14T18:12:56.920Z,346.74
2023-02-14T18:16:12.910Z,302.98
2023-02-14T18:19:19.831Z,293.58
2023-02-14T18:22:27.331Z,287.65
2023-02-14T18:25:40.446Z,316.02
2023-02-14T18:28:51.108Z,330.88
2023-02-14T18:31:59.365Z,346.80
2023-02-14T18:35:05.258Z,365.19
2023-02-14T18:38:12.741Z,431.76
2023-02-14T18:41:24.622Z,514.88
2023-02-14T18:44:34.476Z,459.63
2023-02-14T18:47:40.371Z,379.31
2023-02-14T18:50:47.178Z,391.39
2023-02-14T18:53:55.612Z,361.02
2023-02-14T18:57:08.597Z,314.79
2023-02-14T19:00:23.146Z,308.27
2023-02-14T19:03:40.923Z,307.75
2023-02-14T19:06:46.865Z,311.80
2023-02-14T19:09:54.046Z,336.52
2023-02-14T19:13:00.106Z,360.54
2023-02-14T19:16:20.701Z,384.70
2023-02-14T19:19:26.599Z,408.83
2023-02-14T19:22:33.319Z,404.63
2023-02-14T19:25:42.925Z,668.33
2023-02-14T19:28:53.367Z,872.59
2023-02-14T19:32:03.907Z,684.82
2023-02-14T19:35:12.067Z,811.62
2023-02-14T19:38:17.841Z,739.17
2023-02-14T19:41:30.023Z,759.04
2023-02-14T19:44:35.820Z,619.95
2023-02-14T19:47:47.425Z,498.69
2023-02-14T19:50:55.376Z,472.08
2023-02-14T19:54:05.990Z,475.83
2023-02-14T19:57:18.002Z,640.30
2023-02-14T20:00:25.242Z,887.61
2023-02-14T20:03:42.910Z,773.41
2023-02-14T20:06:51.256Z,518.39
2023-02-14T20:09:57.855Z,467.50
2023-02-14T20:13:16.566Z,460.18
2023-02-14T20:16:23.275Z,587.99
2023-02-14T20:19:38.135Z,615.26
2023-02-14T20:22:44.551Z,561.01
2023-02-14T20:25:51.198Z,527.88
2023-02-14T20:28:57.823Z,551.50
2023-02-14T20:32:05.076Z,551.16
2023-02-14T20:35:13.675Z,593.21
2023-02-14T20:38:20.596Z,565.05
2023-02-14T20:41:27.871Z,515.63
2023-02-14T20:44:34.922Z,477.95
2023-02-14T20:47:40.782Z,438.35
2023-02-14T20:50:50.278Z,400.69
2023-02-14T20:53:57.179Z,434.48
2023-02-14T20:57:03.873Z,516.69
2023-02-14T21:00:12.297Z,442.60
2023-02-14T21:03:18.938Z,447.28
2023-02-14T21:06:31.638Z,486.53
2023-02-14T21:09:38.736Z,440.53
2023-02-14T21:12:44.703Z,448.05
2023-02-14T21:15:51.442Z,447.12
2023-02-14T21:19:01.366Z,462.58
2023-02-14T21:22:10.889Z,455.72
2023-02-14T21:25:16.717Z,496.25
2023-02-14T21:28:23.437Z,541.42
2023-02-14T21:31:29.461Z,542.35
2023-02-14T21:34:36.751Z,525.80
2023-02-14T21:37:45.320Z,514.70
2023-02-14T21:40:52.048Z,502.42
2023-02-14T21:43:59.385Z,478.15
2023-02-14T21:47:06.050Z,482.07
2023-02-14T21:50:26.142Z,494.54
2023-02-14T21:53:36.640Z,529.97
2023-02-14T21:56:44.418Z,553.31
2023-02-14T21:59:51.211Z,550.61
2023-02-14T22:02:57.172Z,560.52
2023-02-14T22:06:08.941Z,506.37
2023-02-14T22:09:19.156Z,494.74
2023-02-14T22:12:25.829Z,499.96
2023-02-14T22:15:31.702Z,546.00
2023-02-14T22:18:38.834Z,646.03
2023-02-14T22:21:46.426Z,644.97
2023-02-14T22:24:55.705Z,621.14
2023-02-14T22:28:02.439Z,522.29
2023-02-14T22:31:10.072Z,528.74
2023-02-14T22:34:20.016Z,496.42
2023-02-14T22:37:29.705Z,415.55
2023-02-14T22:40:39.289Z,386.06
2023-02-14T22:43:47.400Z,409.71
2023-02-14T22:46:53.347Z,382.63
2023-02-14T22:50:01.164Z,298.34
2023-02-14T22:53:07.795Z,238.83
2023-02-14T22:56:21.484Z,242.81
2023-02-14T22:59:32.363Z,264.67
2023-02-14T23:02:39.110Z,259.83
2023-02-14T23:05:44.962Z,274.03
2023-02-14T23:08:51.985Z,268.96
2023-02-14T23:12:00.469Z,231.64
2023-02-14T23:15:19.942Z,220.45
2023-02-14T23:18:38.174Z,231.38
2023-02-14T23:21:59.676Z,233.84
2023-02-14T23:25:10.656Z,235.03
2023-02-14T23:28:20.019Z,255.87
2023-02-14T23:31:25.995Z,247.98
2023-02-14T23:34:37.187Z,351.48
2023-02-14T23:37:42.993Z,507.89
2023-02-14T23:41:02.011Z,282.51
2023-02-14T23:44:11.284Z,281.26
2023-02-14T23:47:18.931Z,302.05
2023-02-14T23:50:25.065Z,286.13
2023-02-14T23:53:31.694Z,245.11
2023-02-14T23:56:38.191Z,269.01
2023-02-14T23:59:47.475Z,265.37
